createdAt,value
2023-02-06T00:00:05.533Z,13.66
2023-02-06T00:00:17.552Z,13.66
2023-02-06T00:00:29.556Z,13.67
2023-02-06T00:00:41.551Z,13.66
2023-02-06T00:00:52.541Z,13.66
2023-02-06T00:01:03.595Z,13.66
2023-02-06T00:01:15.510Z,13.67
2023-02-06T00:01:26.560Z,13.66
2023-02-06T00:01:37.514Z,13.67
2023-02-06T00:01:49.525Z,13.69
2023-02-06T00:02:01.534Z,13.67
2023-02-06T00:02:13.581Z,13.68
2023-02-06T00:02:24.551Z,13.68
2023-02-06T00:02:35.560Z,13.68
2023-02-06T00:02:46.527Z,13.68
2023-02-06T00:02:57.508Z,13.67
2023-02-06T00:03:08.554Z,13.67
2023-02-06T00:03:19.511Z,13.68
2023-02-06T00:03:30.558Z,13.65
2023-02-06T00:03:41.530Z,13.67
2023-02-06T00:03:52.587Z,13.67
2023-02-06T00:04:04.515Z,13.66
2023-02-06T00:04:15.579Z,13.67
2023-02-06T00:04:26.540Z,13.67
2023-02-06T00:04:37.506Z,13.66
2023-02-06T00:04:48.577Z,13.69
2023-02-06T00:04:59.544Z,13.67
2023-02-06T00:05:10.594Z,13.67
2023-02-06T00:05:21.607Z,13.67
2023-02-06T00:05:33.965Z,13.67
2023-02-06T00:05:44.579Z,13.66
2023-02-06T00:05:55.602Z,13.67
2023-02-06T00:06:07.557Z,13.66
2023-02-06T00:06:18.514Z,13.66
2023-02-06T00:06:30.533Z,13.66
2023-02-06T00:06:42.536Z,13.66
2023-02-06T00:06:54.546Z,13.67
2023-02-06T00:07:06.558Z,13.68
2023-02-06T00:07:17.530Z,13.67
2023-02-06T00:07:29.541Z,13.67
2023-02-06T00:07:40.533Z,13.67
2023-02-06T00:07:52.536Z,13.67
2023-02-06T00:08:03.590Z,13.69
2023-02-06T00:08:15.508Z,13.68
2023-02-06T00:08:27.517Z,13.66
2023-02-06T00:08:39.539Z,13.67
2023-02-06T00:08:51.536Z,13.66
2023-02-06T00:09:03.528Z,13.67
2023-02-06T00:09:15.536Z,13.66
2023-02-06T00:09:27.546Z,13.66
2023-02-06T00:09:39.558Z,13.65
2023-02-06T00:09:51.570Z,13.66
2023-02-06T00:10:02.595Z,13.67
2023-02-06T00:10:13.534Z,13.68
2023-02-06T00:10:25.547Z,13.67
2023-02-06T00:10:37.544Z,13.66
2023-02-06T00:10:49.546Z,13.67
2023-02-06T00:11:01.541Z,13.66
2023-02-06T00:11:12.522Z,13.66
2023-02-06T00:11:24.542Z,13.66
2023-02-06T00:11:35.582Z,13.66
2023-02-06T00:11:47.507Z,13.67
2023-02-06T00:11:58.549Z,13.67
2023-02-06T00:12:10.549Z,13.66
2023-02-06T00:12:22.552Z,13.67
2023-02-06T00:12:34.570Z,13.66
2023-02-06T00:12:46.577Z,13.67
2023-02-06T00:12:57.542Z,13.67
2023-02-06T00:13:09.547Z,13.67
2023-02-06T00:13:21.553Z,13.66
2023-02-06T00:13:33.558Z,13.68
2023-02-06T00:13:45.561Z,13.67
2023-02-06T00:13:57.569Z,13.67
2023-02-06T00:14:09.576Z,13.66
2023-02-06T00:14:21.591Z,13.66
2023-02-06T00:14:33.532Z,13.67
2023-02-06T00:14:45.527Z,13.66
2023-02-06T00:14:56.587Z,13.67
2023-02-06T00:15:07.552Z,13.66
2023-02-06T00:15:19.578Z,13.66
2023-02-06T00:15:30.543Z,13.66
2023-02-06T00:15:41.612Z,13.68
2023-02-06T00:15:53.562Z,13.66
2023-02-06T00:16:04.624Z,13.64
2023-02-06T00:16:15.637Z,13.66
2023-02-06T00:16:27.541Z,13.66
2023-02-06T00:16:38.531Z,13.67
2023-02-06T00:16:50.529Z,13.66
2023-02-06T00:17:01.528Z,13.67
2023-02-06T00:17:12.591Z,13.66
2023-02-06T00:17:24.547Z,13.65
2023-02-06T00:17:36.549Z,13.66
2023-02-06T00:17:48.564Z,13.66
2023-02-06T00:18:00.598Z,13.66
2023-02-06T00:18:12.539Z,13.65
2023-02-06T00:18:24.541Z,13.66
2023-02-06T00:18:36.565Z,13.64
2023-02-06T00:18:48.570Z,13.65
2023-02-06T00:19:00.627Z,13.65
2023-02-06T00:19:12.523Z,13.66
2023-02-06T00:19:24.539Z,13.65
2023-02-06T00:19:36.549Z,13.67
2023-02-06T00:19:47.553Z,13.66
2023-02-06T00:19:59.572Z,13.64
2023-02-06T00:20:11.575Z,13.65
2023-02-06T00:20:23.593Z,13.65
2023-02-06T00:20:34.559Z,13.65
2023-02-06T00:20:46.568Z,13.65
2023-02-06T00:20:58.575Z,13.65
2023-02-06T00:21:09.525Z,13.64
2023-02-06T00:21:20.534Z,13.64
2023-02-06T00:21:31.595Z,13.65
2023-02-06T00:21:42.550Z,13.65
2023-02-06T00:21:54.557Z,13.65
2023-02-06T00:22:06.563Z,13.66
2023-02-06T00:22:17.530Z,13.65
2023-02-06T00:22:29.528Z,13.65
2023-02-06T00:22:41.542Z,13.66
2023-02-06T00:22:53.545Z,13.66
2023-02-06T00:23:05.554Z,13.66
2023-02-06T00:23:17.554Z,13.65
2023-02-06T00:23:29.566Z,13.65
2023-02-06T00:23:40.546Z,13.65
2023-02-06T00:23:51.584Z,13.67
2023-02-06T00:24:03.600Z,13.65
2023-02-06T00:24:15.507Z,13.66
2023-02-06T00:24:26.566Z,13.65
2023-02-06T00:24:37.543Z,13.66
2023-02-06T00:24:48.530Z,13.65
2023-02-06T00:25:00.535Z,13.65
2023-02-06T00:25:11.535Z,13.66
2023-02-06T00:25:23.529Z,13.66
2023-02-06T00:25:35.935Z,13.67
2023-02-06T00:25:47.566Z,13.66
2023-02-06T00:25:59.571Z,13.67
2023-02-06T00:26:10.540Z,13.66
2023-02-06T00:26:22.557Z,13.65
2023-02-06T00:26:33.516Z,13.66
2023-02-06T00:26:45.528Z,13.65
2023-02-06T00:26:57.543Z,13.66
2023-02-06T00:27:08.598Z,13.66
2023-02-06T00:27:20.560Z,13.65
2023-02-06T00:27:31.508Z,13.66
2023-02-06T00:27:42.639Z,13.65
2023-02-06T00:27:54.584Z,13.66
2023-02-06T00:28:05.700Z,13.66
2023-02-06T00:28:16.639Z,13.65
2023-02-06T00:28:27.532Z,13.65
2023-02-06T00:28:39.531Z,13.64
2023-02-06T00:28:51.553Z,13.64
2023-02-06T00:29:03.551Z,13.64
2023-02-06T00:29:14.507Z,13.65
2023-02-06T00:29:25.533Z,13.65
2023-02-06T00:29:36.501Z,13.65
2023-02-06T00:29:47.557Z,13.63
2023-02-06T00:29:59.566Z,13.66
2023-02-06T00:30:11.573Z,13.65
2023-02-06T00:30:23.603Z,13.64
2023-02-06T00:30:35.555Z,13.64
2023-02-06T00:30:46.585Z,13.65
2023-02-06T00:30:57.643Z,13.65
2023-02-06T00:31:09.663Z,13.65
2023-02-06T00:31:20.625Z,13.65
2023-02-06T00:31:32.599Z,13.64
2023-02-06T00:31:44.624Z,13.65
2023-02-06T00:31:55.523Z,13.64
2023-02-06T00:32:07.532Z,13.64
2023-02-06T00:32:19.539Z,13.64
2023-02-06T00:32:30.643Z,13.64
2023-02-06T00:32:42.574Z,13.65
2023-02-06T00:32:53.527Z,13.64
2023-02-06T00:33:04.592Z,13.65
2023-02-06T00:33:16.530Z,13.65
2023-02-06T00:33:27.580Z,13.64
2023-02-06T00:33:39.599Z,13.65
2023-02-06T00:33:51.535Z,13.64
2023-02-06T00:34:03.549Z,13.66
2023-02-06T00:34:15.553Z,13.64
2023-02-06T00:34:27.550Z,13.64
2023-02-06T00:34:39.560Z,13.65
2023-02-06T00:34:50.515Z,13.66
2023-02-06T00:35:01.560Z,13.65
2023-02-06T00:35:13.560Z,13.65
2023-02-06T00:35:24.517Z,13.65
2023-02-06T00:35:35.954Z,13.65
2023-02-06T00:35:47.534Z,13.65
2023-02-06T00:35:59.542Z,13.65
2023-02-06T00:36:11.554Z,13.65
2023-02-06T00:36:22.523Z,13.65
2023-02-06T00:36:34.544Z,13.65
2023-02-06T00:36:46.551Z,13.65
2023-02-06T00:36:57.509Z,13.65
2023-02-06T00:37:09.523Z,13.65
2023-02-06T00:37:21.544Z,13.64
2023-02-06T00:37:32.602Z,13.65
2023-02-06T00:37:44.502Z,13.65
2023-02-06T00:37:55.545Z,13.64
2023-02-06T00:38:06.535Z,13.65
2023-02-06T00:38:18.537Z,13.66
2023-02-06T00:38:30.555Z,13.65
2023-02-06T00:38:42.573Z,13.64
2023-02-06T00:38:54.572Z,13.65
2023-02-06T00:39:05.565Z,13.65
2023-02-06T00:39:17.575Z,13.65
2023-02-06T00:39:28.538Z,13.66
2023-02-06T00:39:40.534Z,13.66
2023-02-06T00:39:52.557Z,13.67
2023-02-06T00:40:03.533Z,13.65
2023-02-06T00:40:15.533Z,13.65
2023-02-06T00:40:27.537Z,13.65
2023-02-06T00:40:39.548Z,13.65
2023-02-06T00:40:51.557Z,13.64
2023-02-06T00:41:03.574Z,13.65
2023-02-06T00:41:14.544Z,13.66
2023-02-06T00:41:26.552Z,13.66
2023-02-06T00:41:38.561Z,13.65
2023-02-06T00:41:49.525Z,13.65
2023-02-06T00:42:00.590Z,13.66
2023-02-06T00:42:11.554Z,13.65
2023-02-06T00:42:23.571Z,13.63
2023-02-06T00:42:34.554Z,13.64
2023-02-06T00:42:45.585Z,13.64
2023-02-06T00:42:56.556Z,13.65
2023-02-06T00:43:07.519Z,13.65
2023-02-06T00:43:19.530Z,13.64
2023-02-06T00:43:31.532Z,13.65
2023-02-06T00:43:43.709Z,13.64
2023-02-06T00:43:55.580Z,13.63
2023-02-06T00:44:06.521Z,13.63
2023-02-06T00:44:18.534Z,13.63
2023-02-06T00:44:30.542Z,13.64
2023-02-06T00:44:41.604Z,13.64
2023-02-06T00:44:52.559Z,13.64
2023-02-06T00:45:03.518Z,13.64
2023-02-06T00:45:14.581Z,13.63
2023-02-06T00:45:26.584Z,13.64
2023-02-06T00:45:38.593Z,13.64
2023-02-06T00:45:50.613Z,13.64
2023-02-06T00:46:02.568Z,13.64
2023-02-06T00:46:13.589Z,13.65
2023-02-06T00:46:24.560Z,13.65
2023-02-06T00:46:35.511Z,13.64
2023-02-06T00:46:46.546Z,13.65
2023-02-06T00:46:57.533Z,13.64
2023-02-06T00:47:09.538Z,13.64
2023-02-06T00:47:21.575Z,13.64
2023-02-06T00:47:32.518Z,13.64
2023-02-06T00:47:43.612Z,13.63
2023-02-06T00:47:54.558Z,13.64
2023-02-06T00:48:06.558Z,13.63
2023-02-06T00:48:18.560Z,13.64
2023-02-06T00:48:30.599Z,13.64
2023-02-06T00:48:41.547Z,13.63
2023-02-06T00:48:53.560Z,13.64
2023-02-06T00:49:04.516Z,13.64
2023-02-06T00:49:15.546Z,13.64
2023-02-06T00:49:27.562Z,13.62
2023-02-06T00:49:38.520Z,13.63
2023-02-06T00:49:50.526Z,13.63
2023-02-06T00:50:02.542Z,13.64
2023-02-06T00:50:14.541Z,13.64
2023-02-06T00:50:26.543Z,13.63
2023-02-06T00:50:38.558Z,13.64
2023-02-06T00:50:49.526Z,13.63
2023-02-06T00:51:01.557Z,13.62
2023-02-06T00:51:12.514Z,13.63
2023-02-06T00:51:23.561Z,13.63
2023-02-06T00:51:35.574Z,13.63
2023-02-06T00:51:47.573Z,13.64
2023-02-06T00:51:59.537Z,13.64
2023-02-06T00:52:10.532Z,13.64
2023-02-06T00:52:22.541Z,13.64
2023-02-06T00:52:34.547Z,13.64
2023-02-06T00:52:45.550Z,13.65
2023-02-06T00:52:56.531Z,13.64
2023-02-06T00:53:07.520Z,13.63
2023-02-06T00:53:19.546Z,13.65
2023-02-06T00:53:31.561Z,13.65
2023-02-06T00:53:42.518Z,13.65
2023-02-06T00:53:54.524Z,13.65
2023-02-06T00:54:06.540Z,13.64
2023-02-06T00:54:17.601Z,13.65
2023-02-06T00:54:29.512Z,13.64
2023-02-06T00:54:40.560Z,13.64
2023-02-06T00:54:52.567Z,13.66
2023-02-06T00:55:04.626Z,13.63
2023-02-06T00:55:16.539Z,13.65
2023-02-06T00:55:28.552Z,13.63
2023-02-06T00:55:40.553Z,13.64
2023-02-06T00:55:52.568Z,13.64
2023-02-06T00:56:03.523Z,13.64
2023-02-06T00:56:15.538Z,13.64
2023-02-06T00:56:26.601Z,13.64
2023-02-06T00:56:38.506Z,13.64
2023-02-06T00:56:49.602Z,13.65
2023-02-06T00:57:00.574Z,13.64
2023-02-06T00:57:11.519Z,13.65
2023-02-06T00:57:22.562Z,13.64
2023-02-06T00:57:34.576Z,13.64
2023-02-06T00:57:45.521Z,13.64
2023-02-06T00:57:57.544Z,13.62
2023-02-06T00:58:09.552Z,13.64
2023-02-06T00:58:21.564Z,13.63
2023-02-06T00:58:33.585Z,13.63
2023-02-06T00:58:44.536Z,13.63
2023-02-06T00:58:56.533Z,13.64
2023-02-06T00:59:08.559Z,13.64
2023-02-06T00:59:19.520Z,13.63
2023-02-06T00:59:30.558Z,13.65
2023-02-06T00:59:41.521Z,13.65
2023-02-06T00:59:53.545Z,13.64
2023-02-06T01:00:04.598Z,13.64
2023-02-06T01:00:16.594Z,13.63
2023-02-06T01:00:28.600Z,13.63
2023-02-06T01:00:40.517Z,13.65
2023-02-06T01:00:51.573Z,13.65
2023-02-06T01:01:02.536Z,13.66
2023-02-06T01:01:13.598Z,13.65
2023-02-06T01:01:25.559Z,13.64
2023-02-06T01:01:36.541Z,13.64
2023-02-06T01:01:47.628Z,13.63
2023-02-06T01:01:59.625Z,13.65
2023-02-06T01:02:11.533Z,13.65
2023-02-06T01:02:22.614Z,13.64
2023-02-06T01:02:34.619Z,13.65
2023-02-06T01:02:46.652Z,13.64
2023-02-06T01:02:57.578Z,13.64
2023-02-06T01:03:08.536Z,13.63
2023-02-06T01:03:20.542Z,13.63
2023-02-06T01:03:31.598Z,13.64
2023-02-06T01:03:42.557Z,13.64
2023-02-06T01:03:54.556Z,13.64
2023-02-06T01:04:06.573Z,13.65
2023-02-06T01:04:18.580Z,13.64
2023-02-06T01:04:30.583Z,13.64
2023-02-06T01:04:41.534Z,13.64
2023-02-06T01:04:53.547Z,13.64
2023-02-06T01:05:04.598Z,13.63
2023-02-06T01:05:16.597Z,13.64
2023-02-06T01:05:28.538Z,13.63
2023-02-06T01:05:40.558Z,13.63
2023-02-06T01:05:51.529Z,13.64
2023-02-06T01:06:03.527Z,13.64
2023-02-06T01:06:15.546Z,13.64
2023-02-06T01:06:27.559Z,13.64
2023-02-06T01:06:38.514Z,13.64
2023-02-06T01:06:50.545Z,13.66
2023-02-06T01:07:02.553Z,13.64
2023-02-06T01:07:13.520Z,13.65
2023-02-06T01:07:24.582Z,13.65
2023-02-06T01:07:35.553Z,13.65
2023-02-06T01:07:47.556Z,13.66
2023-02-06T01:07:59.557Z,13.64
2023-02-06T01:08:11.575Z,13.66
2023-02-06T01:08:23.572Z,13.64
2023-02-06T01:08:35.589Z,13.66
2023-02-06T01:08:47.593Z,13.64
2023-02-06T01:08:59.593Z,13.65
2023-02-06T01:09:11.515Z,13.65
2023-02-06T01:09:23.517Z,13.65
2023-02-06T01:09:35.529Z,13.64
2023-02-06T01:09:47.552Z,13.65
2023-02-06T01:09:59.563Z,13.63
2023-02-06T01:10:10.527Z,13.63
2023-02-06T01:10:22.536Z,13.64
2023-02-06T01:10:34.542Z,13.65
2023-02-06T01:10:46.560Z,13.65
2023-02-06T01:10:57.500Z,13.66
2023-02-06T01:11:09.507Z,13.65
2023-02-06T01:11:21.529Z,13.64
2023-02-06T01:11:32.611Z,13.66
2023-02-06T01:11:44.531Z,13.65
2023-02-06T01:11:55.589Z,13.65
2023-02-06T01:12:07.594Z,13.64
2023-02-06T01:12:18.553Z,13.65
2023-02-06T01:12:29.507Z,13.64
2023-02-06T01:12:40.558Z,13.64
2023-02-06T01:12:51.526Z,13.65
2023-02-06T01:13:02.595Z,13.64
2023-02-06T01:13:14.513Z,13.64
2023-02-06T01:13:25.522Z,13.65
2023-02-06T01:13:36.496Z,13.64
2023-02-06T01:13:48.538Z,13.65
2023-02-06T01:14:00.550Z,13.65
2023-02-06T01:14:11.523Z,13.64
2023-02-06T01:14:23.536Z,13.65
2023-02-06T01:14:35.532Z,13.65
2023-02-06T01:14:47.518Z,13.65
2023-02-06T01:14:59.549Z,13.63
2023-02-06T01:15:10.527Z,13.64
2023-02-06T01:15:22.551Z,13.64
2023-02-06T01:15:34.880Z,13.63
2023-02-06T01:15:45.655Z,13.63
2023-02-06T01:15:56.505Z,13.63
2023-02-06T01:16:07.642Z,13.62
2023-02-06T01:16:19.580Z,13.64
2023-02-06T01:16:30.567Z,13.62
2023-02-06T01:16:41.523Z,13.63
2023-02-06T01:16:53.530Z,13.65
2023-02-06T01:17:05.530Z,13.64
2023-02-06T01:17:17.530Z,13.63
2023-02-06T01:17:29.530Z,13.64
2023-02-06T01:17:41.534Z,13.65
2023-02-06T01:17:52.589Z,13.63
2023-02-06T01:18:04.603Z,13.65
2023-02-06T01:18:16.495Z,13.64
2023-02-06T01:18:27.554Z,13.64
2023-02-06T01:18:39.577Z,13.64
2023-02-06T01:18:51.574Z,13.65
2023-02-06T01:19:03.583Z,13.64
2023-02-06T01:19:15.583Z,13.63
2023-02-06T01:19:27.601Z,13.64
2023-02-06T01:19:39.515Z,13.64
2023-02-06T01:19:51.522Z,13.63
2023-02-06T01:20:03.537Z,13.63
2023-02-06T01:20:14.506Z,13.65
2023-02-06T01:20:25.550Z,13.65
2023-02-06T01:20:37.550Z,13.63
2023-02-06T01:20:48.515Z,13.63
2023-02-06T01:21:00.524Z,13.63
2023-02-06T01:21:12.535Z,13.63
2023-02-06T01:21:24.535Z,13.64
2023-02-06T01:21:36.557Z,13.63
2023-02-06T01:21:48.553Z,13.64
2023-02-06T01:22:00.555Z,13.64
2023-02-06T01:22:11.545Z,13.64
2023-02-06T01:22:22.507Z,13.63
2023-02-06T01:22:33.580Z,13.66
2023-02-06T01:22:45.599Z,13.64
2023-02-06T01:22:56.547Z,13.62
2023-02-06T01:23:07.521Z,13.64
2023-02-06T01:23:19.532Z,13.64
2023-02-06T01:23:31.530Z,13.65
2023-02-06T01:23:43.545Z,13.63
2023-02-06T01:23:54.513Z,13.64
2023-02-06T01:24:06.523Z,13.62
2023-02-06T01:24:18.529Z,13.64
2023-02-06T01:24:30.548Z,13.63
2023-02-06T01:24:42.559Z,13.63
2023-02-06T01:24:53.521Z,13.62
2023-02-06T01:25:05.528Z,13.63
2023-02-06T01:25:16.593Z,13.63
2023-02-06T01:25:28.506Z,13.63
2023-02-06T01:25:39.544Z,13.64
2023-02-06T01:25:51.547Z,13.63
2023-02-06T01:26:03.552Z,13.62
2023-02-06T01:26:14.502Z,13.62
2023-02-06T01:26:25.550Z,13.62
2023-02-06T01:26:37.580Z,13.63
2023-02-06T01:26:48.541Z,13.64
2023-02-06T01:27:00.570Z,13.62
2023-02-06T01:27:11.513Z,13.63
2023-02-06T01:27:23.529Z,13.63
2023-02-06T01:27:35.533Z,13.62
2023-02-06T01:27:46.617Z,13.64
2023-02-06T01:27:58.586Z,13.65
2023-02-06T01:28:09.658Z,13.63
2023-02-06T01:28:20.537Z,13.64
2023-02-06T01:28:31.585Z,13.64
2023-02-06T01:28:42.528Z,13.64
2023-02-06T01:28:54.553Z,13.65
2023-02-06T01:29:06.551Z,13.64
2023-02-06T01:29:18.560Z,13.63
2023-02-06T01:29:30.571Z,13.64
2023-02-06T01:29:42.562Z,13.63
2023-02-06T01:29:53.534Z,13.65
2023-02-06T01:30:05.533Z,13.63
2023-02-06T01:30:16.506Z,13.64
2023-02-06T01:30:27.568Z,13.63
2023-02-06T01:30:38.540Z,13.63
2023-02-06T01:30:49.542Z,13.64
2023-02-06T01:31:00.721Z,13.63
2023-02-06T01:31:11.608Z,13.65
2023-02-06T01:31:22.592Z,13.65
2023-02-06T01:31:34.529Z,13.64
2023-02-06T01:31:45.681Z,13.63
2023-02-06T01:31:56.547Z,13.62
2023-02-06T01:32:08.547Z,13.62
2023-02-06T01:32:20.550Z,13.63
2023-02-06T01:32:31.505Z,13.62
2023-02-06T01:32:42.584Z,13.62
2023-02-06T01:32:53.529Z,13.63
2023-02-06T01:33:05.527Z,13.62
2023-02-06T01:33:17.530Z,13.62
2023-02-06T01:33:28.514Z,13.62
2023-02-06T01:33:40.556Z,13.62
2023-02-06T01:33:51.530Z,13.62
2023-02-06T01:34:02.588Z,13.62
2023-02-06T01:34:13.521Z,13.62
2023-02-06T01:34:24.513Z,13.63
2023-02-06T01:34:36.533Z,13.63
2023-02-06T01:34:47.597Z,13.62
2023-02-06T01:34:59.497Z,13.62
2023-02-06T01:35:10.568Z,13.62
2023-02-06T01:35:21.527Z,13.63
2023-02-06T01:35:34.015Z,13.62
2023-02-06T01:35:44.502Z,13.62
2023-02-06T01:35:55.566Z,13.62
2023-02-06T01:36:06.529Z,13.62
2023-02-06T01:36:18.534Z,13.62
2023-02-06T01:36:30.619Z,13.63
2023-02-06T01:36:42.555Z,13.62
2023-02-06T01:36:53.512Z,13.62
2023-02-06T01:37:04.547Z,13.62
2023-02-06T01:37:16.556Z,13.60
2023-02-06T01:37:27.569Z,13.61
2023-02-06T01:37:39.572Z,13.61
2023-02-06T01:37:51.557Z,13.61
2023-02-06T01:38:03.594Z,13.61
2023-02-06T01:38:14.551Z,13.61
2023-02-06T01:38:26.560Z,13.62
2023-02-06T01:38:38.569Z,13.61
2023-02-06T01:38:50.587Z,13.61
2023-02-06T01:39:02.589Z,13.61
2023-02-06T01:39:14.506Z,13.62
2023-02-06T01:39:25.557Z,13.62
2023-02-06T01:39:36.509Z,13.62
2023-02-06T01:39:47.576Z,13.61
2023-02-06T01:39:58.531Z,13.62
2023-02-06T01:40:09.604Z,13.62
2023-02-06T01:40:21.530Z,13.62
2023-02-06T01:40:32.624Z,13.62
2023-02-06T01:40:44.550Z,13.62
2023-02-06T01:40:56.557Z,13.64
2023-02-06T01:41:08.561Z,13.62
2023-02-06T01:41:20.570Z,13.64
2023-02-06T01:41:31.531Z,13.64
2023-02-06T01:41:43.537Z,13.63
2023-02-06T01:41:54.497Z,13.63
2023-02-06T01:42:05.550Z,13.63
2023-02-06T01:42:17.565Z,13.62
2023-02-06T01:42:29.574Z,13.63
2023-02-06T01:42:41.581Z,13.62
2023-02-06T01:42:52.540Z,13.63
2023-02-06T01:43:04.566Z,13.62
2023-02-06T01:43:15.511Z,13.62
2023-02-06T01:43:26.576Z,13.61
2023-02-06T01:43:37.556Z,13.61
2023-02-06T01:43:49.570Z,13.62
2023-02-06T01:44:01.569Z,13.62
2023-02-06T01:44:13.586Z,13.62
2023-02-06T01:44:24.538Z,13.61
2023-02-06T01:44:36.546Z,13.62
2023-02-06T01:44:48.545Z,13.64
2023-02-06T01:45:00.541Z,13.61
2023-02-06T01:45:12.558Z,13.63
2023-02-06T01:45:24.568Z,13.63
2023-02-06T01:45:36.828Z,13.62
2023-02-06T01:45:47.548Z,13.62
2023-02-06T01:45:59.556Z,13.61
2023-02-06T01:46:10.530Z,13.62
2023-02-06T01:46:22.554Z,13.61
2023-02-06T01:46:33.571Z,13.61
2023-02-06T01:46:44.537Z,13.61
2023-02-06T01:46:55.560Z,13.61
2023-02-06T01:47:06.508Z,13.62
2023-02-06T01:47:18.503Z,13.62
2023-02-06T01:47:30.520Z,13.62
2023-02-06T01:47:42.531Z,13.62
2023-02-06T01:47:53.505Z,13.62
2023-02-06T01:48:04.557Z,13.63
2023-02-06T01:48:16.566Z,13.62
2023-02-06T01:48:28.570Z,13.63
2023-02-06T01:48:40.567Z,13.61
2023-02-06T01:48:52.571Z,13.61
2023-02-06T01:49:05.454Z,13.60
2023-02-06T01:49:14.550Z,13.62
2023-02-06T01:49:25.522Z,13.62
2023-02-06T01:49:37.527Z,13.62
2023-02-06T01:49:48.496Z,13.61
2023-02-06T01:49:59.531Z,13.62
2023-02-06T01:50:11.531Z,13.62
2023-02-06T01:50:23.533Z,13.62
2023-02-06T01:50:35.546Z,13.62
2023-02-06T01:50:47.549Z,13.62
2023-02-06T01:50:59.573Z,13.62
2023-02-06T01:51:11.583Z,13.62
2023-02-06T01:51:23.576Z,13.62
2023-02-06T01:51:35.597Z,13.62
2023-02-06T01:51:47.549Z,13.62
2023-02-06T01:51:58.499Z,13.63
2023-02-06T01:52:09.544Z,13.62
2023-02-06T01:52:20.513Z,13.63
2023-02-06T01:52:31.572Z,13.63
2023-02-06T01:52:43.566Z,13.63
2023-02-06T01:52:55.572Z,13.63
2023-02-06T01:53:07.585Z,13.62
2023-02-06T01:53:19.499Z,13.63
2023-02-06T01:53:30.551Z,13.62
2023-02-06T01:53:42.556Z,13.61
2023-02-06T01:53:53.537Z,13.62
2023-02-06T01:54:05.528Z,13.63
2023-02-06T01:54:17.534Z,13.62
2023-02-06T01:54:29.544Z,13.63
2023-02-06T01:54:40.504Z,13.61
2023-02-06T01:54:52.508Z,13.62
2023-02-06T01:55:03.587Z,13.61
2023-02-06T01:55:14.528Z,13.61
2023-02-06T01:55:25.598Z,13.61
2023-02-06T01:55:37.829Z,13.61
2023-02-06T01:55:48.552Z,13.62
2023-02-06T01:56:00.555Z,13.61
2023-02-06T01:56:12.559Z,13.61
2023-02-06T01:56:24.558Z,13.63
2023-02-06T01:56:36.570Z,13.61
2023-02-06T01:56:48.592Z,13.61
2023-02-06T01:57:00.512Z,13.61
2023-02-06T01:57:11.550Z,13.62
2023-02-06T01:57:23.555Z,13.61
2023-02-06T01:57:34.548Z,13.61
2023-02-06T01:57:45.524Z,13.61
2023-02-06T01:57:57.520Z,13.62
2023-02-06T01:58:08.503Z,13.62
2023-02-06T01:58:19.542Z,13.63
2023-02-06T01:58:31.545Z,13.62
2023-02-06T01:58:43.577Z,13.61
2023-02-06T01:58:55.586Z,13.61
2023-02-06T01:59:07.586Z,13.60
2023-02-06T01:59:19.532Z,13.61
2023-02-06T01:59:31.560Z,13.61
2023-02-06T01:59:42.515Z,13.61
2023-02-06T01:59:54.512Z,13.60
2023-02-06T02:00:05.572Z,13.61
2023-02-06T02:00:17.589Z,13.60
2023-02-06T02:00:29.618Z,13.59
2023-02-06T02:00:41.574Z,13.58
2023-02-06T02:00:52.591Z,13.61
2023-02-06T02:01:03.583Z,13.61
2023-02-06T02:01:15.525Z,13.61
2023-02-06T02:01:26.607Z,13.61
2023-02-06T02:01:37.700Z,13.61
2023-02-06T02:01:49.575Z,13.58
2023-02-06T02:02:00.587Z,13.61
2023-02-06T02:02:11.567Z,13.61
2023-02-06T02:02:22.544Z,13.60
2023-02-06T02:02:33.556Z,13.60
2023-02-06T02:02:44.552Z,13.60
2023-02-06T02:02:56.566Z,13.60
2023-02-06T02:03:08.578Z,13.60
2023-02-06T02:03:19.540Z,13.60
2023-02-06T02:03:31.559Z,13.61
2023-02-06T02:03:43.572Z,13.60
2023-02-06T02:03:55.576Z,13.60
2023-02-06T02:04:06.547Z,13.61
2023-02-06T02:04:18.558Z,13.59
2023-02-06T02:04:29.533Z,13.59
2023-02-06T02:04:41.530Z,13.60
2023-02-06T02:04:53.530Z,13.60
2023-02-06T02:05:05.529Z,13.59
2023-02-06T02:05:16.506Z,13.60
2023-02-06T02:05:28.517Z,13.61
2023-02-06T02:05:40.535Z,13.59
2023-02-06T02:05:52.579Z,13.59
2023-02-06T02:06:03.529Z,13.61
2023-02-06T02:06:15.540Z,13.59
2023-02-06T02:06:27.580Z,13.59
2023-02-06T02:06:38.532Z,13.61
2023-02-06T02:06:49.592Z,13.59
2023-02-06T02:07:01.593Z,13.60
2023-02-06T02:07:13.597Z,13.60
2023-02-06T02:07:24.557Z,13.60
2023-02-06T02:07:36.557Z,13.60
2023-02-06T02:07:48.568Z,13.60
2023-02-06T02:07:59.530Z,13.60
2023-02-06T02:08:11.528Z,13.59
2023-02-06T02:08:23.534Z,13.60
2023-02-06T02:08:35.549Z,13.60
2023-02-06T02:08:47.552Z,13.60
2023-02-06T02:08:58.592Z,13.60
2023-02-06T02:09:09.543Z,13.60
2023-02-06T02:09:20.518Z,13.60
2023-02-06T02:09:32.527Z,13.59
2023-02-06T02:09:44.537Z,13.60
2023-02-06T02:09:56.536Z,13.60
2023-02-06T02:10:07.507Z,13.60
2023-02-06T02:10:18.570Z,13.61
2023-02-06T02:10:30.567Z,13.61
2023-02-06T02:10:42.583Z,13.61
2023-02-06T02:10:54.591Z,13.60
2023-02-06T02:11:06.505Z,13.61
2023-02-06T02:11:17.548Z,13.61
2023-02-06T02:11:29.554Z,13.60
2023-02-06T02:11:40.499Z,13.61
2023-02-06T02:11:52.536Z,13.62
2023-02-06T02:12:03.501Z,13.60
2023-02-06T02:12:14.552Z,13.61
2023-02-06T02:12:26.552Z,13.61
2023-02-06T02:12:38.545Z,13.61
2023-02-06T02:12:50.551Z,13.61
2023-02-06T02:13:02.554Z,13.61
2023-02-06T02:13:14.568Z,13.62
2023-02-06T02:13:26.599Z,13.61
2023-02-06T02:13:38.545Z,13.60
2023-02-06T02:13:50.559Z,13.60
2023-02-06T02:14:02.559Z,13.61
2023-02-06T02:14:13.513Z,13.61
2023-02-06T02:14:25.513Z,13.61
2023-02-06T02:14:37.527Z,13.60
2023-02-06T02:14:49.550Z,13.59
2023-02-06T02:15:00.512Z,13.58
2023-02-06T02:15:11.572Z,13.59
2023-02-06T02:15:22.518Z,13.60
2023-02-06T02:15:34.802Z,13.59
2023-02-06T02:15:45.556Z,13.58
2023-02-06T02:15:57.564Z,13.60
2023-02-06T02:16:08.570Z,13.59
2023-02-06T02:16:19.583Z,13.59
2023-02-06T02:16:30.659Z,13.59
2023-02-06T02:16:41.502Z,13.60
2023-02-06T02:16:52.543Z,13.60
2023-02-06T02:17:04.554Z,13.59
2023-02-06T02:17:16.555Z,13.59
2023-02-06T02:17:28.566Z,13.59
2023-02-06T02:17:40.570Z,13.59
2023-02-06T02:17:52.600Z,13.60
2023-02-06T02:18:04.537Z,13.61
2023-02-06T02:18:15.532Z,13.59
2023-02-06T02:18:27.534Z,13.59
2023-02-06T02:18:38.504Z,13.59
2023-02-06T02:18:50.512Z,13.60
2023-02-06T02:19:02.542Z,13.59
2023-02-06T02:19:13.518Z,13.61
2023-02-06T02:19:25.516Z,13.59
2023-02-06T02:19:36.557Z,13.58
2023-02-06T02:19:47.514Z,13.59
2023-02-06T02:19:58.556Z,13.60
2023-02-06T02:20:10.553Z,13.60
2023-02-06T02:20:22.574Z,13.59
2023-02-06T02:20:33.532Z,13.59
2023-02-06T02:20:45.548Z,13.60
2023-02-06T02:20:56.592Z,13.59
2023-02-06T02:21:08.502Z,13.59
2023-02-06T02:21:19.558Z,13.60
2023-02-06T02:21:30.518Z,13.60
2023-02-06T02:21:41.569Z,13.60
2023-02-06T02:21:53.567Z,13.59
2023-02-06T02:22:05.574Z,13.60
2023-02-06T02:22:17.575Z,13.59
2023-02-06T02:22:29.581Z,13.60
2023-02-06T02:22:41.592Z,13.59
2023-02-06T02:22:53.617Z,13.60
2023-02-06T02:23:05.580Z,13.60
2023-02-06T02:23:17.572Z,13.59
2023-02-06T02:23:28.537Z,13.59
2023-02-06T02:23:40.561Z,13.60
2023-02-06T02:23:51.524Z,13.61
2023-02-06T02:24:03.529Z,13.60
2023-02-06T02:24:15.531Z,13.60
2023-02-06T02:24:28.048Z,13.59
2023-02-06T02:24:38.514Z,13.60
2023-02-06T02:24:49.553Z,13.58
2023-02-06T02:25:01.559Z,13.59
2023-02-06T02:25:12.520Z,13.60
2023-02-06T02:25:23.562Z,13.60
2023-02-06T02:25:35.072Z,13.61
2023-02-06T02:25:45.522Z,13.59
2023-02-06T02:25:56.554Z,13.58
2023-02-06T02:26:08.568Z,13.60
2023-02-06T02:26:20.583Z,13.59
2023-02-06T02:26:32.592Z,13.58
2023-02-06T02:26:44.600Z,13.57
2023-02-06T02:26:56.539Z,13.59
2023-02-06T02:27:08.548Z,13.60
2023-02-06T02:27:20.554Z,13.59
2023-02-06T02:27:32.546Z,13.60
2023-02-06T02:27:43.557Z,13.60
2023-02-06T02:27:54.564Z,13.60
2023-02-06T02:28:05.577Z,13.60
2023-02-06T02:28:16.604Z,13.61
2023-02-06T02:28:28.529Z,13.61
2023-02-06T02:28:39.594Z,13.60
2023-02-06T02:28:51.506Z,13.59
2023-02-06T02:29:02.558Z,13.59